Time;durP1;ratioP1;P1;durP2;ratioP2;P2;SDS_P1;SDS_P2;PMS_P1;PMS_P2;Temp;Humidity;BMP_temperature;BMP_pressure;BME280_temperature;BME280_humidity;BME280_pressure;Samples;Min_cycle;Max_cycle;Signal;HPM_P1;HPM_P2
2021/06/15 00:01:01;;;;;;;6.75;1.27;;;;;;;;;;5095978;28;20414;-64
2021/06/15 00:03:33;;;;;;;8.52;1.17;;;;;;;;;;5099848;28;20031;-64
2021/06/15 00:06:01;;;;;;;10.23;1.77;;;;;;;;;;5095914;28;20043;-64
2021/06/15 00:08:27;;;;;;;8.10;1.58;;;;;;;;;;5099048;28;20087;-64
2021/06/15 00:10:53;;;;;;;7.80;1.33;;;;;;;;;;5101165;28;20115;-64
2021/06/15 00:13:21;;;;;;;7.78;1.15;;;;;;;;;;5089569;28;20079;-64
2021/06/15 00:15:48;;;;;;;6.13;1.20;;;;;;;;;;5099323;28;20044;-64
2021/06/15 00:18:17;;;;;;;8.90;1.42;;;;;;;;;;5092015;28;20151;-64
2021/06/15 00:20:44;;;;;;;6.13;1.30;;;;;;;;;;5096378;28;20043;-64
2021/06/15 00:23:11;;;;;;;7.80;1.67;;;;;;;;;;5096070;28;20446;-64
2021/06/15 00:25:42;;;;;;;5.20;1.88;;;;;;;;;;5103093;28;20035;-64
2021/06/15 00:28:08;;;;;;;7.95;1.48;;;;;;;;;;5092446;28;20043;-64
2021/06/15 00:30:35;;;;;;;7.25;1.38;;;;;;;;;;5108183;28;20047;-64
2021/06/15 00:33:01;;;;;;;8.60;1.13;;;;;;;;;;5093058;28;20051;-64
2021/06/15 00:35:47;;;;;;;4.28;1.10;;;;;;;;;;5083128;28;20044;-64
2021/06/15 00:38:14;;;;;;;9.82;1.10;;;;;;;;;;5090608;28;20047;-64
2021/06/15 00:41:00;;;;;;;7.47;1.55;;;;;;;;;;5100722;27;20032;-64
2021/06/15 00:43:26;;;;;;;8.02;1.08;;;;;;;;;;5098271;28;20053;-64
2021/06/15 00:45:52;;;;;;;8.15;1.23;;;;;;;;;;5100758;28;20081;-64
2021/06/15 00:48:32;;;;;;;6.45;0.93;;;;;;;;;;5094326;28;20040;-64
2021/06/15 00:50:59;;;;;;;8.27;0.98;;;;;;;;;;5093658;28;20036;-64
2021/06/15 00:53:26;;;;;;;7.68;1.48;;;;;;;;;;5094542;28;20031;-64
2021/06/15 00:55:55;;;;;;;10.25;1.60;;;;;;;;;;5099633;28;20043;-64
2021/06/15 00:58:22;;;;;;;8.85;1.48;;;;;;;;;;5089211;28;20085;-64
2021/06/15 01:00:48;;;;;;;8.57;1.05;;;;;;;;;;5098957;27;20044;-64
2021/06/15 01:03:16;;;;;;;12.30;1.38;;;;;;;;;;5089345;28;20044;-64
2021/06/15 01:05:42;;;;;;;7.15;1.10;;;;;;;;;;5098390;28;20043;-64
2021/06/15 01:08:09;;;;;;;6.80;1.15;;;;;;;;;;5084161;28;20066;-64
2021/06/15 01:10:48;;;;;;;8.32;1.20;;;;;;;;;;5077312;28;20090;-64
2021/06/15 01:13:17;;;;;;;7.35;1.40;;;;;;;;;;5077021;28;20055;-64
2021/06/15 01:15:48;;;;;;;5.13;1.08;;;;;;;;;;5076213;28;20139;-64
2021/06/15 01:18:16;;;;;;;8.48;1.50;;;;;;;;;;5075511;28;20045;-64
2021/06/15 01:20:47;;;;;;;7.20;1.20;;;;;;;;;;5075404;28;20483;-64
2021/06/15 01:23:22;;;;;;;6.43;1.10;;;;;;;;;;5086730;28;20043;-64
2021/06/15 01:25:54;;;;;;;7.50;1.58;;;;;;;;;;5073371;28;20114;-64
2021/06/15 01:28:29;;;;;;;8.05;1.30;;;;;;;;;;5083445;28;20036;-64
2021/06/15 01:31:02;;;;;;;10.68;1.58;;;;;;;;;;5076130;28;20048;-64
2021/06/15 01:33:29;;;;;;;7.22;1.13;;;;;;;;;;5073613;28;20446;-64
2021/06/15 01:35:58;;;;;;;7.03;1.17;;;;;;;;;;5076800;28;20048;-64
2021/06/15 01:38:26;;;;;;;8.30;1.38;;;;;;;;;;5075853;28;20174;-64
2021/06/15 01:40:55;;;;;;;7.28;1.00;;;;;;;;;;5070125;28;20047;-64
2021/06/15 01:43:32;;;;;;;9.10;1.17;;;;;;;;;;5086118;28;20032;-64
2021/06/15 01:45:59;;;;;;;7.68;1.13;;;;;;;;;;5074302;28;20061;-64
2021/06/15 01:48:35;;;;;;;10.18;1.52;;;;;;;;;;5077005;28;20088;-64
2021/06/15 01:51:08;;;;;;;10.88;1.33;;;;;;;;;;5076360;28;20044;-65
2021/06/15 01:53:36;;;;;;;8.30;1.23;;;;;;;;;;5077199;28;20036;-65
2021/06/15 01:56:04;;;;;;;5.70;1.00;;;;;;;;;;5077747;28;20153;-65
2021/06/15 01:58:33;;;;;;;10.30;1.38;;;;;;;;;;5076304;28;20119;-64
2021/06/15 02:01:00;;;;;;;9.93;1.20;;;;;;;;;;5073040;28;20036;-65
2021/06/15 02:03:27;;;;;;;7.00;1.10;;;;;;;;;;5083825;28;20052;-65
2021/06/15 02:05:55;;;;;;;8.27;1.10;;;;;;;;;;5075773;28;20111;-65
2021/06/15 02:08:25;;;;;;;8.45;1.17;;;;;;;;;;5083848;28;20051;-65
2021/06/15 02:10:52;;;;;;;14.38;2.30;;;;;;;;;;5100589;28;20047;-65
2021/06/15 02:13:39;;;;;;;8.85;1.55;;;;;;;;;;5098055;28;20134;-64
2021/06/15 02:16:10;;;;;;;9.25;1.08;;;;;;;;;;5090328;28;20506;-64
2021/06/15 02:18:37;;;;;;;9.85;1.45;;;;;;;;;;5099128;28;20114;-64
2021/06/15 02:21:06;;;;;;;8.95;1.23;;;;;;;;;;5092308;28;20059;-64
2021/06/15 02:23:34;;;;;;;13.73;1.58;;;;;;;;;;5099536;28;20557;-64
2021/06/15 02:26:21;;;;;;;6.90;1.20;;;;;;;;;;5076811;28;20036;-64
2021/06/15 02:28:55;;;;;;;12.10;1.40;;;;;;;;;;5103899;28;20499;-64
2021/06/15 02:31:39;;;;;;;8.35;1.52;;;;;;;;;;5099488;28;20471;-64
2021/06/15 02:34:07;;;;;;;6.80;1.35;;;;;;;;;;5098051;28;20115;-64
2021/06/15 02:36:35;;;;;;;10.88;1.52;;;;;;;;;;5104129;28;20505;-64
2021/06/15 02:39:05;;;;;;;8.38;1.45;;;;;;;;;;5097484;28;20480;-64
2021/06/15 02:41:33;;;;;;;14.52;1.83;;;;;;;;;;5109914;28;20035;-64
2021/06/15 02:44:01;;;;;;;10.60;1.40;;;;;;;;;;5097763;28;20039;-64
2021/06/15 02:46:29;;;;;;;11.60;1.42;;;;;;;;;;5096419;28;20060;-65
2021/06/15 02:48:57;;;;;;;8.05;1.33;;;;;;;;;;5099683;28;20138;-64
2021/06/15 02:51:26;;;;;;;8.98;1.73;;;;;;;;;;5104906;28;20028;-64
2021/06/15 02:54:04;;;;;;;9.10;1.50;;;;;;;;;;5098790;28;20510;-64
2021/06/15 02:56:31;;;;;;;9.25;1.45;;;;;;;;;;5099934;28;20101;-65
2021/06/15 02:58:57;;;;;;;11.15;1.67;;;;;;;;;;5093042;28;20039;-65
2021/06/15 03:01:23;;;;;;;10.75;1.98;;;;;;;;;;5098840;27;20043;-64
2021/06/15 03:03:50;;;;;;;11.07;1.70;;;;;;;;;;5095685;28;20032;-64
2021/06/15 03:06:16;;;;;;;9.93;1.73;;;;;;;;;;5104346;28;20043;-64
2021/06/15 03:08:43;;;;;;;10.45;2.00;;;;;;;;;;5096583;28;20500;-64
2021/06/15 03:11:09;;;;;;;8.60;1.45;;;;;;;;;;5096937;28;20046;-64
2021/06/15 03:13:45;;;;;;;11.85;2.17;;;;;;;;;;5091483;28;20040;-64
2021/06/15 03:16:13;;;;;;;10.95;1.60;;;;;;;;;;5103490;28;20092;-64
2021/06/15 03:18:51;;;;;;;10.30;1.40;;;;;;;;;;5091227;28;20090;-64
2021/06/15 03:21:21;;;;;;;9.70;1.83;;;;;;;;;;5094730;28;20036;-64
2021/06/15 03:23:47;;;;;;;9.48;1.77;;;;;;;;;;5093993;28;20461;-65
2021/06/15 03:26:28;;;;;;;14.60;1.95;;;;;;;;;;5098542;28;20433;-65
2021/06/15 03:29:18;;;;;;;10.05;1.70;;;;;;;;;;5080512;28;20051;-64
2021/06/15 03:32:16;;;;;;;13.30;1.70;;;;;;;;;;5101215;28;20052;-64
2021/06/15 03:34:47;;;;;;;6.63;1.23;;;;;;;;;;5093263;28;20506;-64
2021/06/15 03:37:18;;;;;;;13.90;1.75;;;;;;;;;;5097396;28;20055;-64
2021/06/15 03:39:45;;;;;;;11.15;1.65;;;;;;;;;;5095722;28;20032;-64
2021/06/15 03:42:15;;;;;;;12.80;2.22;;;;;;;;;;5097506;28;20047;-64
2021/06/15 03:44:42;;;;;;;11.40;1.35;;;;;;;;;;5101361;28;20458;-64
2021/06/15 03:47:08;;;;;;;12.98;1.95;;;;;;;;;;5096622;28;20043;-64
2021/06/15 03:49:35;;;;;;;7.72;1.73;;;;;;;;;;5097364;28;20044;-64
2021/06/15 03:52:03;;;;;;;12.20;1.58;;;;;;;;;;5102024;28;20130;-64
2021/06/15 03:54:31;;;;;;;6.80;1.33;;;;;;;;;;5105470;28;20119;-64
2021/06/15 03:57:00;;;;;;;13.88;1.58;;;;;;;;;;5101899;28;20385;-64
2021/06/15 03:59:27;;;;;;;8.43;1.80;;;;;;;;;;5106961;28;20046;-64
2021/06/15 04:01:59;;;;;;;10.32;1.67;;;;;;;;;;5088173;27;20127;-64
2021/06/15 04:04:25;;;;;;;14.40;1.83;;;;;;;;;;5105112;28;20050;-64
2021/06/15 04:06:53;;;;;;;8.73;1.75;;;;;;;;;;5091553;28;20074;-64
2021/06/15 04:09:21;;;;;;;9.35;1.70;;;;;;;;;;5093481;28;20044;-64
2021/06/15 04:11:48;;;;;;;9.77;1.35;;;;;;;;;;5092128;28;20387;-64
2021/06/15 04:14:16;;;;;;;11.00;1.95;;;;;;;;;;5097433;27;20036;-64
2021/06/15 04:16:42;;;;;;;11.48;1.60;;;;;;;;;;5088915;27;20508;-64
2021/06/15 04:19:12;;;;;;;8.70;1.98;;;;;;;;;;5094745;28;20477;-64
2021/06/15 04:21:43;;;;;;;13.95;1.85;;;;;;;;;;5093593;28;20114;-64
2021/06/15 04:24:11;;;;;;;12.48;1.80;;;;;;;;;;5100592;28;20118;-64
2021/06/15 04:26:38;;;;;;;13.25;2.45;;;;;;;;;;5093241;28;20519;-64
2021/06/15 04:29:06;;;;;;;9.95;1.70;;;;;;;;;;5099903;28;20048;-64
2021/06/15 04:31:36;;;;;;;12.35;1.90;;;;;;;;;;5093335;28;20553;-64
2021/06/15 04:34:04;;;;;;;14.27;2.10;;;;;;;;;;5098622;28;20034;-64
2021/06/15 04:36:34;;;;;;;10.90;1.40;;;;;;;;;;5095084;28;20530;-64
2021/06/15 04:39:21;;;;;;;14.95;2.03;;;;;;;;;;5096127;28;20279;-65
2021/06/15 04:41:56;;;;;;;11.93;2.00;;;;;;;;;;5093617;28;20036;-64
2021/06/15 04:44:25;;;;;;;11.25;1.77;;;;;;;;;;5095087;28;20085;-64
2021/06/15 04:46:56;;;;;;;12.27;1.65;;;;;;;;;;5099905;28;20039;-64
2021/06/15 04:49:41;;;;;;;9.05;1.60;;;;;;;;;;5096536;28;20432;-64
2021/06/15 04:52:09;;;;;;;15.80;2.63;;;;;;;;;;5094605;28;20468;-64
2021/06/15 04:54:36;;;;;;;10.60;1.77;;;;;;;;;;5103882;28;20067;-64
2021/06/15 04:57:04;;;;;;;10.25;1.80;;;;;;;;;;5092132;28;20052;-64
2021/06/15 04:59:30;;;;;;;10.07;1.92;;;;;;;;;;5104681;28;20040;-64
2021/06/15 05:01:58;;;;;;;12.15;2.03;;;;;;;;;;5100626;28;20111;-64
2021/06/15 05:04:25;;;;;;;10.02;1.70;;;;;;;;;;5090443;28;20055;-64
2021/06/15 05:07:02;;;;;;;10.48;1.83;;;;;;;;;;5093395;28;20054;-65
2021/06/15 05:09:31;;;;;;;7.80;1.60;;;;;;;;;;5089907;28;20059;-64
2021/06/15 05:11:57;;;;;;;11.05;2.15;;;;;;;;;;5099210;28;20044;-65
2021/06/15 05:14:33;;;;;;;11.13;1.67;;;;;;;;;;5095497;28;20082;-65
2021/06/15 05:17:01;;;;;;;11.63;1.58;;;;;;;;;;5092646;28;20036;-65
2021/06/15 05:19:27;;;;;;;10.18;1.48;;;;;;;;;;5094170;28;20043;-65
2021/06/15 05:22:03;;;;;;;10.95;1.60;;;;;;;;;;5094635;28;20455;-65
2021/06/15 05:24:50;;;;;;;7.65;1.65;;;;;;;;;;5087568;28;20522;-65
2021/06/15 05:27:18;;;;;;;12.45;1.88;;;;;;;;;;5099358;28;20067;-65
2021/06/15 05:29:44;;;;;;;8.38;1.50;;;;;;;;;;5093833;28;20071;-65
2021/06/15 05:32:10;;;;;;;9.30;1.67;;;;;;;;;;5096505;28;20039;-65
2021/06/15 05:34:37;;;;;;;8.45;1.55;;;;;;;;;;5088111;28;20502;-65
2021/06/15 05:37:04;;;;;;;8.45;1.70;;;;;;;;;;5093765;28;20044;-65
2021/06/15 05:39:31;;;;;;;9.93;1.70;;;;;;;;;;5093982;28;20118;-65
2021/06/15 05:41:57;;;;;;;9.43;1.67;;;;;;;;;;5094763;28;20043;-65
2021/06/15 05:44:23;;;;;;;9.27;1.58;;;;;;;;;;5092613;28;20036;-65
2021/06/15 05:46:49;;;;;;;8.10;1.60;;;;;;;;;;5102784;28;20039;-65
2021/06/15 05:49:15;;;;;;;12.52;1.90;;;;;;;;;;5093164;28;20043;-65
2021/06/15 05:51:42;;;;;;;11.70;1.92;;;;;;;;;;5104033;28;20539;-65
2021/06/15 05:54:08;;;;;;;13.43;1.80;;;;;;;;;;5103751;28;20044;-65
2021/06/15 05:56:35;;;;;;;9.70;1.52;;;;;;;;;;5093477;28;20054;-65
2021/06/15 05:59:01;;;;;;;8.10;1.70;;;;;;;;;;5105313;28;20040;-65
2021/06/15 06:01:27;;;;;;;11.25;2.00;;;;;;;;;;5095620;28;20093;-65
2021/06/15 06:04:03;;;;;;;9.30;1.65;;;;;;;;;;5101076;28;20509;-65
2021/06/15 06:09:14;;;;;;;;;;;;;;;;;;5105200;28;20048;-65
2021/06/15 06:11:44;;;;;;;14.20;1.98;;;;;;;;;;5100811;28;19923;-65
2021/06/15 06:14:10;;;;;;;9.38;1.73;;;;;;;;;;5105003;28;20466;-65
2021/06/15 06:16:37;;;;;;;10.25;1.70;;;;;;;;;;5097645;28;20507;-65
2021/06/15 06:19:04;;;;;;;11.52;2.15;;;;;;;;;;5107124;28;20044;-65
2021/06/15 06:21:34;;;;;;;8.93;1.63;;;;;;;;;;5098977;28;20036;-65
2021/06/15 06:24:01;;;;;;;9.70;1.73;;;;;;;;;;5100662;27;20050;-65
2021/06/15 06:26:28;;;;;;;13.10;1.77;;;;;;;;;;5095494;27;20127;-65
2021/06/15 06:28:54;;;;;;;14.20;2.17;;;;;;;;;;5108353;28;20092;-65
2021/06/15 06:31:20;;;;;;;9.43;1.35;;;;;;;;;;5097474;28;20035;-65
2021/06/15 06:33:47;;;;;;;12.68;1.58;;;;;;;;;;5107084;28;20067;-65
2021/06/15 06:36:13;;;;;;;14.77;1.83;;;;;;;;;;5103469;28;20031;-65
2021/06/15 06:38:40;;;;;;;8.93;1.40;;;;;;;;;;5107813;28;20271;-65
2021/06/15 06:41:06;;;;;;;7.10;1.60;;;;;;;;;;5104095;28;20067;-65
2021/06/15 06:43:32;;;;;;;12.63;2.53;;;;;;;;;;5107248;28;20514;-65
2021/06/15 06:45:58;;;;;;;11.02;1.23;;;;;;;;;;5106292;28;20398;-65
2021/06/15 06:48:24;;;;;;;13.52;1.85;;;;;;;;;;5101843;28;20039;-65
2021/06/15 06:50:51;;;;;;;10.07;1.70;;;;;;;;;;5105343;28;20048;-65
2021/06/15 06:53:18;;;;;;;10.52;1.80;;;;;;;;;;5100086;28;20039;-65
2021/06/15 06:55:44;;;;;;;9.60;1.70;;;;;;;;;;5104602;28;20338;-65
2021/06/15 06:58:10;;;;;;;11.02;1.58;;;;;;;;;;5099407;28;20040;-65
2021/06/15 07:00:37;;;;;;;9.05;1.75;;;;;;;;;;5103903;28;20565;-65
2021/06/15 07:03:03;;;;;;;10.43;1.48;;;;;;;;;;5095414;28;20028;-65
2021/06/15 07:05:29;;;;;;;7.97;1.52;;;;;;;;;;5097365;28;20094;-65
2021/06/15 07:07:59;;;;;;;8.45;1.77;;;;;;;;;;5087626;28;20048;-65
2021/06/15 07:10:25;;;;;;;9.35;1.85;;;;;;;;;;5099257;28;20097;-65
2021/06/15 07:12:51;;;;;;;8.60;1.48;;;;;;;;;;5091978;28;20110;-65
2021/06/15 07:15:18;;;;;;;9.50;1.83;;;;;;;;;;5096182;28;20418;-65
2021/06/15 07:17:44;;;;;;;6.28;1.80;;;;;;;;;;5095418;27;20052;-65
2021/06/15 07:20:11;;;;;;;8.93;2.00;;;;;;;;;;5098778;28;20119;-65
2021/06/15 07:22:37;;;;;;;12.55;3.00;;;;;;;;;;5094146;28;20089;-65
2021/06/15 07:25:04;;;;;;;8.38;1.55;;;;;;;;;;5095279;28;20032;-65
2021/06/15 07:27:51;;;;;;;11.18;1.77;;;;;;;;;;5075781;28;20060;-65
2021/06/15 07:30:19;;;;;;;7.95;1.75;;;;;;;;;;5095848;28;20043;-65
2021/06/15 07:33:05;;;;;;;6.93;1.42;;;;;;;;;;5080962;28;20070;-65
2021/06/15 07:35:51;;;;;;;9.90;1.90;;;;;;;;;;5082627;28;20039;-65
2021/06/15 07:38:37;;;;;;;10.35;1.67;;;;;;;;;;5102178;28;20066;-65
2021/06/15 07:41:03;;;;;;;7.20;1.60;;;;;;;;;;5095199;28;20036;-65
2021/06/15 07:43:31;;;;;;;9.15;1.90;;;;;;;;;;5093019;28;20043;-65
2021/06/15 07:46:17;;;;;;;8.13;1.85;;;;;;;;;;5081777;28;20097;-65
2021/06/15 07:49:04;;;;;;;10.50;1.70;;;;;;;;;;5088181;28;20472;-65
2021/06/15 07:51:34;;;;;;;5.10;1.33;;;;;;;;;;5094531;28;20100;-65
2021/06/15 07:54:20;;;;;;;8.68;1.67;;;;;;;;;;5083453;28;20036;-65
2021/06/15 07:57:07;;;;;;;8.45;1.73;;;;;;;;;;5093002;28;20465;-65
2021/06/15 07:59:33;;;;;;;13.45;1.65;;;;;;;;;;5099898;28;20038;-65
2021/06/15 08:02:20;;;;;;;13.60;1.67;;;;;;;;;;5089442;28;20063;-65
2021/06/15 08:04:46;;;;;;;7.60;1.23;;;;;;;;;;5101539;28;20040;-65
2021/06/15 08:07:18;;;;;;;8.73;1.60;;;;;;;;;;5105230;28;20049;-65
2021/06/15 08:09:45;;;;;;;7.43;1.40;;;;;;;;;;5098947;28;20720;-65
2021/06/15 08:12:11;;;;;;;11.70;2.10;;;;;;;;;;5104841;28;20062;-65
2021/06/15 08:14:57;;;;;;;9.65;1.65;;;;;;;;;;5101044;28;20058;-66
2021/06/15 08:17:44;;;;;;;8.40;1.52;;;;;;;;;;5087497;28;20758;-65
2021/06/15 08:20:11;;;;;;;9.40;1.88;;;;;;;;;;5099394;28;20084;-65
2021/06/15 08:22:38;;;;;;;12.23;1.98;;;;;;;;;;5098740;28;20054;-65
2021/06/15 08:25:24;;;;;;;12.05;1.65;;;;;;;;;;5078850;28;20039;-65
2021/06/15 08:27:50;;;;;;;8.80;1.70;;;;;;;;;;5097627;27;20032;-65
2021/06/15 08:30:36;;;;;;;9.85;2.00;;;;;;;;;;5097690;27;20546;-65
2021/06/15 08:33:23;;;;;;;8.02;1.60;;;;;;;;;;5090235;28;20067;-65
2021/06/15 08:35:49;;;;;;;9.40;1.80;;;;;;;;;;5083491;28;20054;-65
2021/06/15 08:38:35;;;;;;;6.97;1.80;;;;;;;;;;5094858;28;20044;-65
2021/06/15 08:41:01;;;;;;;8.23;1.45;;;;;;;;;;5088547;28;20119;-65
2021/06/15 08:43:28;;;;;;;9.43;1.52;;;;;;;;;;5093546;28;20052;-65
2021/06/15 08:45:54;;;;;;;7.38;1.60;;;;;;;;;;5097898;27;20109;-66
2021/06/15 08:48:21;;;;;;;8.45;1.80;;;;;;;;;;5096523;28;20063;-66
2021/06/15 08:50:47;;;;;;;11.48;1.83;;;;;;;;;;5098538;28;20061;-66
2021/06/15 08:53:14;;;;;;;6.97;1.55;;;;;;;;;;5087539;28;20098;-66
2021/06/15 08:55:45;;;;;;;8.68;1.33;;;;;;;;;;5105163;28;20051;-66
2021/06/15 08:58:23;;;;;;;8.38;1.30;;;;;;;;;;5096342;28;20075;-66
2021/06/15 09:00:49;;;;;;;8.95;1.50;;;;;;;;;;5094256;28;20054;-66
2021/06/15 09:03:16;;;;;;;6.93;1.63;;;;;;;;;;5092197;28;20040;-66
2021/06/15 09:05:42;;;;;;;7.50;1.70;;;;;;;;;;5094930;28;20344;-66
2021/06/15 09:08:12;;;;;;;9.30;1.35;;;;;;;;;;5090765;28;20043;-66
2021/06/15 09:10:40;;;;;;;10.40;1.83;;;;;;;;;;5106632;28;20472;-66
2021/06/15 09:13:08;;;;;;;8.63;1.33;;;;;;;;;;5089884;28;20036;-66
2021/06/15 09:15:34;;;;;;;8.15;1.45;;;;;;;;;;5095498;28;20042;-66
2021/06/15 09:18:01;;;;;;;8.05;1.73;;;;;;;;;;5088866;28;20044;-67
2021/06/15 09:20:31;;;;;;;8.55;1.60;;;;;;;;;;5100617;27;20115;-67
2021/06/15 09:23:08;;;;;;;9.23;1.67;;;;;;;;;;5077094;28;20097;-64
2021/06/15 09:25:34;;;;;;;8.02;1.40;;;;;;;;;;5094875;28;20118;-65
2021/06/15 09:28:15;;;;;;;7.78;1.40;;;;;;;;;;5090555;28;20032;-66
2021/06/15 09:30:54;;;;;;;8.48;1.63;;;;;;;;;;5092353;28;20487;-67
2021/06/15 09:33:20;;;;;;;6.25;1.15;;;;;;;;;;5087885;28;20032;-67
2021/06/15 09:35:46;;;;;;;11.70;1.90;;;;;;;;;;5097935;28;20043;-67
2021/06/15 09:38:12;;;;;;;9.85;1.65;;;;;;;;;;5090014;28;20415;-68
2021/06/15 09:40:40;;;;;;;7.80;1.40;;;;;;;;;;5091218;28;20044;-67
2021/06/15 09:43:09;;;;;;;8.23;1.60;;;;;;;;;;5094289;28;20035;-67
2021/06/15 09:45:38;;;;;;;7.93;1.35;;;;;;;;;;5099745;28;20040;-66
2021/06/15 09:48:19;;;;;;;6.55;1.20;;;;;;;;;;5094163;28;20436;-68
2021/06/15 09:50:45;;;;;;;4.82;1.05;;;;;;;;;;5092071;28;20048;-67
2021/06/15 09:53:25;;;;;;;9.18;1.85;;;;;;;;;;5095119;28;20385;-68
2021/06/15 09:55:52;;;;;;;10.32;1.80;;;;;;;;;;5096674;28;20102;-68
2021/06/15 09:58:18;;;;;;;6.88;1.15;;;;;;;;;;5098380;28;20050;-67
2021/06/15 10:00:52;;;;;;;8.77;1.60;;;;;;;;;;5089903;28;20040;-67
2021/06/15 10:03:18;;;;;;;7.78;1.65;;;;;;;;;;5094298;28;20502;-67
2021/06/15 10:05:44;;;;;;;5.80;1.25;;;;;;;;;;5094733;28;20050;-68
2021/06/15 10:08:12;;;;;;;7.20;1.58;;;;;;;;;;5103243;28;20048;-67
2021/06/15 10:10:42;;;;;;;4.78;1.42;;;;;;;;;;5087219;28;20042;-67
2021/06/15 10:13:09;;;;;;;8.05;1.65;;;;;;;;;;5095291;28;20719;-67
2021/06/15 10:15:36;;;;;;;6.18;1.73;;;;;;;;;;5092961;28;20088;-67
2021/06/15 10:18:03;;;;;;;9.10;1.50;;;;;;;;;;5103419;28;20036;-68
2021/06/15 10:20:30;;;;;;;6.68;1.38;;;;;;;;;;5093682;28;20125;-67
2021/06/15 10:22:57;;;;;;;5.55;1.48;;;;;;;;;;5095933;28;20119;-67
2021/06/15 10:25:24;;;;;;;6.28;1.40;;;;;;;;;;5090543;28;20063;-68
2021/06/15 10:27:51;;;;;;;6.70;1.50;;;;;;;;;;5091722;28;20044;-68
2021/06/15 10:30:18;;;;;;;10.20;1.80;;;;;;;;;;5089138;28;20062;-67
2021/06/15 10:33:02;;;;;;;7.10;2.03;;;;;;;;;;5098719;28;20413;-68
2021/06/15 10:35:46;;;;;;;7.35;1.33;;;;;;;;;;5089217;28;20124;-69
2021/06/15 10:38:16;;;;;;;7.60;1.40;;;;;;;;;;5094101;28;20048;-68
2021/06/15 10:40:46;;;;;;;7.10;1.45;;;;;;;;;;5095866;28;20119;-69
2021/06/15 10:43:19;;;;;;;5.97;1.27;;;;;;;;;;5102153;28;20040;-68
2021/06/15 10:45:52;;;;;;;6.43;1.60;;;;;;;;;;5096316;28;20112;-68
2021/06/15 10:48:18;;;;;;;4.95;1.10;;;;;;;;;;5098717;28;20040;-68
2021/06/15 10:50:48;;;;;;;6.38;1.73;;;;;;;;;;5090916;28;20046;-68
2021/06/15 10:53:15;;;;;;;6.28;1.23;;;;;;;;;;5092324;28;20123;-68
2021/06/15 10:55:45;;;;;;;7.47;1.35;;;;;;;;;;5095671;28;20419;-67
2021/06/15 10:58:12;;;;;;;5.82;1.30;;;;;;;;;;5089965;28;20043;-68
2021/06/15 11:00:45;;;;;;;5.57;1.58;;;;;;;;;;5098206;28;20344;-68
2021/06/15 11:03:17;;;;;;;5.97;1.40;;;;;;;;;;5093403;28;20065;-68
2021/06/15 11:05:52;;;;;;;6.25;1.10;;;;;;;;;;5097384;28;20864;-67
2021/06/15 11:08:21;;;;;;;6.60;1.25;;;;;;;;;;5093991;28;20079;-68
2021/06/15 11:10:52;;;;;;;4.95;1.30;;;;;;;;;;5097813;28;20043;-67
2021/06/15 11:13:19;;;;;;;10.77;7.03;;;;;;;;;;5092123;28;20558;-67
2021/06/15 11:15:58;;;;;;;8.93;2.22;;;;;;;;;;5094116;28;20115;-69
2021/06/15 11:18:25;;;;;;;6.10;1.40;;;;;;;;;;5091957;28;20039;-69
2021/06/15 11:20:51;;;;;;;8.88;1.60;;;;;;;;;;5097133;28;20492;-66
2021/06/15 11:23:27;;;;;;;6.30;1.35;;;;;;;;;;5096142;27;21343;-70
2021/06/15 11:25:55;;;;;;;7.63;1.48;;;;;;;;;;5090233;28;20126;-69
2021/06/15 11:28:40;;;;;;;6.40;1.52;;;;;;;;;;5100315;28;20157;-69
2021/06/15 11:31:19;;;;;;;7.75;1.58;;;;;;;;;;5104466;28;20027;-68
2021/06/15 11:34:00;;;;;;;7.55;1.55;;;;;;;;;;5094247;28;20044;-68
2021/06/15 11:36:42;;;;;;;119.13;106.70;;;;;;;;;;5106145;28;20457;-67
2021/06/15 11:39:29;;;;;;;6.47;1.63;;;;;;;;;;5102529;28;20046;-67
2021/06/15 11:42:22;;;;;;;6.97;1.27;;;;;;;;;;5107111;28;20055;-68
2021/06/15 11:44:48;;;;;;;4.75;1.13;;;;;;;;;;5097827;28;20071;-68
2021/06/15 11:47:23;;;;;;;4.22;1.25;;;;;;;;;;5101121;28;20096;-71
2021/06/15 11:50:10;;;;;;;6.15;1.20;;;;;;;;;;5095528;28;20115;-68
2021/06/15 11:52:37;;;;;;;7.63;1.20;;;;;;;;;;5106816;28;20040;-69
2021/06/15 11:55:04;;;;;;;4.95;1.17;;;;;;;;;;5099261;28;20471;-68
2021/06/15 11:57:30;;;;;;;5.43;1.13;;;;;;;;;;5106188;28;20494;-68
2021/06/15 11:59:57;;;;;;;4.30;1.00;;;;;;;;;;5101829;28;20185;-70
2021/06/15 12:02:23;;;;;;;7.10;1.40;;;;;;;;;;5103855;28;20458;-68
2021/06/15 12:05:05;;;;;;;7.07;1.33;;;;;;;;;;5096702;28;20066;-69
2021/06/15 12:07:32;;;;;;;8.00;1.48;;;;;;;;;;5106300;28;20042;-71
2021/06/15 12:10:07;;;;;;;5.38;1.20;;;;;;;;;;5080936;28;20501;-68
2021/06/15 12:12:52;;;;;;;4.75;1.10;;;;;;;;;;5105610;28;20441;-69
2021/06/15 12:15:37;;;;;;;4.47;0.90;;;;;;;;;;5099966;28;20035;-69
2021/06/15 12:18:04;;;;;;;6.38;0.98;;;;;;;;;;5102038;28;20062;-69
2021/06/15 12:20:33;;;;;;;4.97;1.05;;;;;;;;;;5115600;27;20052;-69
2021/06/15 12:23:18;;;;;;;5.63;1.10;;;;;;;;;;5106545;28;20097;-68
2021/06/15 12:25:45;;;;;;;4.80;0.98;;;;;;;;;;5096933;28;20031;-68
2021/06/15 12:28:15;;;;;;;6.18;1.20;;;;;;;;;;5105066;28;20426;-68
2021/06/15 12:30:41;;;;;;;5.18;1.20;;;;;;;;;;5098891;28;20036;-69
2021/06/15 12:33:09;;;;;;;4.50;1.00;;;;;;;;;;5103450;28;20110;-65
2021/06/15 12:35:36;;;;;;;4.60;1.00;;;;;;;;;;5097414;28;20035;-66
2021/06/15 12:38:13;;;;;;;5.15;0.88;;;;;;;;;;5105721;28;20031;-65
2021/06/15 12:40:40;;;;;;;4.45;1.30;;;;;;;;;;5100551;28;20043;-65
2021/06/15 12:43:07;;;;;;;5.78;1.13;;;;;;;;;;5105506;28;20545;-65
2021/06/15 12:45:37;;;;;;;5.55;1.13;;;;;;;;;;5099988;28;20035;-65
2021/06/15 12:48:23;;;;;;;4.10;1.00;;;;;;;;;;5105106;28;20221;-65
2021/06/15 12:51:21;;;;;;;5.75;0.98;;;;;;;;;;5095873;28;20595;-65
2021/06/15 12:53:48;;;;;;;6.20;1.20;;;;;;;;;;5062970;28;20044;-65
2021/06/15 12:56:21;;;;;;;4.50;1.30;;;;;;;;;;5101200;28;20044;-65
2021/06/15 12:58:48;;;;;;;;;;;;;;;;;;5104814;28;20510;-65
2021/06/15 13:01:15;;;;;;;8.80;1.25;;;;;;;;;;5096794;28;20359;-65
2021/06/15 13:03:43;;;;;;;6.35;1.40;;;;;;;;;;5101968;28;20035;-65
2021/06/15 13:06:13;;;;;;;5.50;1.23;;;;;;;;;;5096396;28;20066;-65
2021/06/15 13:08:40;;;;;;;5.88;1.17;;;;;;;;;;5106766;28;20062;-65
2021/06/15 13:11:12;;;;;;;4.88;1.20;;;;;;;;;;5099531;28;20048;-65
2021/06/15 13:13:50;;;;;;;4.93;1.10;;;;;;;;;;5107290;28;20047;-65
2021/06/15 13:16:16;;;;;;;4.57;1.10;;;;;;;;;;5103263;28;20406;-65
2021/06/15 13:18:56;;;;;;;5.35;1.00;;;;;;;;;;5097565;28;20411;-65
2021/06/15 13:21:23;;;;;;;5.38;1.13;;;;;;;;;;5102887;28;20048;-65
2021/06/15 13:24:05;;;;;;;4.35;0.95;;;;;;;;;;5102966;28;20055;-65
2021/06/15 13:26:31;;;;;;;7.53;0.77;;;;;;;;;;5105066;28;20415;-65
2021/06/15 13:29:00;;;;;;;5.03;1.08;;;;;;;;;;5097726;28;20480;-65
2021/06/15 13:31:26;;;;;;;5.57;1.00;;;;;;;;;;5102772;28;20380;-65
2021/06/15 13:34:06;;;;;;;4.50;0.90;;;;;;;;;;5097859;28;20138;-65
2021/06/15 13:36:32;;;;;;;5.72;1.08;;;;;;;;;;5102358;28;20558;-65
2021/06/15 13:39:12;;;;;;;6.63;1.25;;;;;;;;;;5096418;28;20078;-65
2021/06/15 13:41:39;;;;;;;7.85;1.08;;;;;;;;;;5107579;28;20379;-65
2021/06/15 13:44:06;;;;;;;5.32;0.82;;;;;;;;;;5099836;28;20046;-65
2021/06/15 13:46:32;;;;;;;7.70;1.10;;;;;;;;;;5101163;28;20086;-65
2021/06/15 13:49:00;;;;;;;4.75;0.98;;;;;;;;;;5100245;28;20032;-65
2021/06/15 13:51:26;;;;;;;5.63;1.35;;;;;;;;;;5103153;28;20043;-65
2021/06/15 13:53:53;;;;;;;5.32;1.10;;;;;;;;;;5098190;28;20032;-65
2021/06/15 13:56:19;;;;;;;5.97;1.10;;;;;;;;;;5105198;28;20035;-65
2021/06/15 13:58:46;;;;;;;6.05;1.33;;;;;;;;;;5096823;28;20131;-65
2021/06/15 14:01:12;;;;;;;3.45;0.80;;;;;;;;;;5103613;28;20119;-65
2021/06/15 14:03:38;;;;;;;5.30;0.98;;;;;;;;;;5097513;28;20031;-65
2021/06/15 14:06:04;;;;;;;8.70;3.03;;;;;;;;;;5105121;28;20046;-64
2021/06/15 14:08:30;;;;;;;8.70;1.10;;;;;;;;;;5098056;28;20581;-64
2021/06/15 14:10:57;;;;;;;5.22;0.90;;;;;;;;;;5099509;28;20101;-64
2021/06/15 14:13:23;;;;;;;4.75;0.95;;;;;;;;;;5087353;28;20517;-64
2021/06/15 14:15:49;;;;;;;6.57;1.13;;;;;;;;;;5100333;28;20074;-64
2021/06/15 14:18:16;;;;;;;7.53;0.90;;;;;;;;;;5103386;28;20085;-64
2021/06/15 14:20:42;;;;;;;4.65;0.98;;;;;;;;;;5097329;28;20043;-64
2021/06/15 14:23:09;;;;;;;5.45;1.25;;;;;;;;;;5100877;28;20846;-64
2021/06/15 14:25:36;;;;;;;8.75;3.63;;;;;;;;;;5097420;28;20096;-64
2021/06/15 14:28:03;;;;;;;8.82;2.65;;;;;;;;;;5102266;28;20078;-64
2021/06/15 14:30:30;;;;;;;5.07;1.10;;;;;;;;;;5103688;28;20507;-64
2021/06/15 14:32:56;;;;;;;6.80;1.20;;;;;;;;;;5107670;28;20465;-64
2021/06/15 14:35:23;;;;;;;6.85;1.00;;;;;;;;;;5098727;28;20046;-64
2021/06/15 14:37:50;;;;;;;4.13;1.08;;;;;;;;;;5104041;28;20394;-65
2021/06/15 14:40:17;;;;;;;4.03;0.70;;;;;;;;;;5103166;28;20080;-66
2021/06/15 14:42:44;;;;;;;7.07;1.38;;;;;;;;;;5107986;28;20032;-66
2021/06/15 14:45:11;;;;;;;4.53;1.10;;;;;;;;;;5101801;28;20035;-66
2021/06/15 14:47:37;;;;;;;4.88;1.08;;;;;;;;;;5105165;28;20132;-66
2021/06/15 14:50:04;;;;;;;4.50;0.85;;;;;;;;;;5098580;28;20092;-66
2021/06/15 14:52:30;;;;;;;6.07;1.00;;;;;;;;;;5106312;28;20627;-66
2021/06/15 14:54:57;;;;;;;5.28;0.90;;;;;;;;;;5105680;28;20060;-66
2021/06/15 14:57:23;;;;;;;6.93;1.05;;;;;;;;;;5103157;28;20380;-66
2021/06/15 14:59:49;;;;;;;4.88;0.90;;;;;;;;;;5108343;28;20054;-66
2021/06/15 15:02:15;;;;;;;5.07;0.93;;;;;;;;;;5104084;28;20442;-65